Reno, Pennsylvania
Current Conditions -  °F | °C
As of 5:55 AM on Friday 28 Nov 2014 (Local Time) from KFKL Reporting Station
Overcast Overcast  
Wind Chill: 16°   Ceiling: 1000
Heat Index: 23°   Visibility: 4mi
Dew Point: 18°   Wind: 6mph
Humidity: 80%   Direction: 270°W
Pressure: 30.23"   Gusts: NA
Location:  41.41°N, 79.75°W
Report Text: KFKL 281055Z AUTO 27005KT 4SM BKN010 BKN019 OVC024 M05/M08 A3023 RMK AO1
Loading
Personal Weather Stations






























Interactive Weather Map New forecast layout! Learn more

10-Day Weather Forecast

Advertisements
Track Severe Weather on mobile